sensor_id;sensor_type;location;lat;lon;timestamp;temperature;humidity
34698;DHT22;61391;50.922;6.928;2023-01-15T00:01:49;8.60;99.90
34698;DHT22;61391;50.922;6.928;2023-01-15T00:07:37;8.50;99.90
34698;DHT22;61391;50.922;6.928;2023-01-15T00:13:24;8.60;99.90
34698;DHT22;61391;50.922;6.928;2023-01-15T00:15:53;8.50;99.90
34698;DHT22;61391;50.922;6.928;2023-01-15T00:18:18;8.50;99.90
34698;DHT22;61391;50.922;6.928;2023-01-15T00:20:44;8.50;99.90
34698;DHT22;61391;50.922;6.928;2023-01-15T00:23:09;8.40;99.90
34698;DHT22;61391;50.922;6.928;2023-01-15T00:25:55;8.30;99.90
34698;DHT22;61391;50.922;6.928;2023-01-15T00:28:39;8.40;99.90
34698;DHT22;61391;50.922;6.928;2023-01-15T00:31:05;8.40;99.90
34698;DHT22;61391;50.922;6.928;2023-01-15T00:33:31;8.40;99.90
34698;DHT22;61391;50.922;6.928;2023-01-15T00:35:56;8.40;99.90
34698;DHT22;61391;50.922;6.928;2023-01-15T00:38:22;8.40;99.90
34698;DHT22;61391;50.922;6.928;2023-01-15T00:40:47;8.30;99.90
34698;DHT22;61391;50.922;6.928;2023-01-15T00:43:17;8.20;99.90
34698;DHT22;61391;50.922;6.928;2023-01-15T00:45:43;8.20;99.90
34698;DHT22;61391;50.922;6.928;2023-01-15T00:48:08;8.20;99.90
34698;DHT22;61391;50.922;6.928;2023-01-15T00:50:35;8.20;99.90
34698;DHT22;61391;50.922;6.928;2023-01-15T00:56:23;8.20;99.90
34698;DHT22;61391;50.922;6.928;2023-01-15T00:58:48;8.10;99.90
34698;DHT22;61391;50.922;6.928;2023-01-15T01:04:36;8.00;99.90
34698;DHT22;61391;50.922;6.928;2023-01-15T01:07:01;8.10;99.90
34698;DHT22;61391;50.922;6.928;2023-01-15T01:09:27;8.10;99.90
34698;DHT22;61391;50.922;6.928;2023-01-15T01:15:40;8.10;99.90
34698;DHT22;61391;50.922;6.928;2023-01-15T01:18:06;8.20;99.90
34698;DHT22;61391;50.922;6.928;2023-01-15T01:20:32;8.40;99.90
34698;DHT22;61391;50.922;6.928;2023-01-15T01:22:58;8.30;99.90
34698;DHT22;61391;50.922;6.928;2023-01-15T01:25:23;8.30;99.90
34698;DHT22;61391;50.922;6.928;2023-01-15T01:27:49;8.20;99.90
34698;DHT22;61391;50.922;6.928;2023-01-15T01:30:15;8.20;99.90
34698;DHT22;61391;50.922;6.928;2023-01-15T01:36:03;8.10;99.90
34698;DHT22;61391;50.922;6.928;2023-01-15T01:38:28;8.10;99.90
34698;DHT22;61391;50.922;6.928;2023-01-15T01:40:54;8.10;99.90
34698;DHT22;61391;50.922;6.928;2023-01-15T01:43:22;8.10;99.90
34698;DHT22;61391;50.922;6.928;2023-01-15T01:45:48;8.10;99.90
34698;DHT22;61391;50.922;6.928;2023-01-15T01:48:15;8.10;99.90
34698;DHT22;61391;50.922;6.928;2023-01-15T01:50:43;8.00;99.90
34698;DHT22;61391;50.922;6.928;2023-01-15T01:53:13;7.90;99.90
34698;DHT22;61391;50.922;6.928;2023-01-15T01:59:02;7.90;99.90
34698;DHT22;61391;50.922;6.928;2023-01-15T02:01:28;7.90;99.90
34698;DHT22;61391;50.922;6.928;2023-01-15T02:03:54;8.00;99.90
34698;DHT22;61391;50.922;6.928;2023-01-15T02:06:21;8.10;99.90
34698;DHT22;61391;50.922;6.928;2023-01-15T02:08:48;8.10;99.90
34698;DHT22;61391;50.922;6.928;2023-01-15T02:11:18;8.30;99.90
34698;DHT22;61391;50.922;6.928;2023-01-15T02:13:46;8.30;99.90
34698;DHT22;61391;50.922;6.928;2023-01-15T02:16:16;8.20;99.90
34698;DHT22;61391;50.922;6.928;2023-01-15T02:30:24;8.00;99.90
34698;DHT22;61391;50.922;6.928;2023-01-15T02:33:09;8.00;99.90
34698;DHT22;61391;50.922;6.928;2023-01-15T02:35:43;8.00;99.90
34698;DHT22;61391;50.922;6.928;2023-01-15T02:38:16;8.00;99.90
34698;DHT22;61391;50.922;6.928;2023-01-15T02:40:43;8.00;99.90
34698;DHT22;61391;50.922;6.928;2023-01-15T02:46:34;8.10;99.90
34698;DHT22;61391;50.922;6.928;2023-01-15T02:49:01;8.10;99.90
34698;DHT22;61391;50.922;6.928;2023-01-15T02:51:40;8.00;99.90
34698;DHT22;61391;50.922;6.928;2023-01-15T02:57:32;7.90;99.90
34698;DHT22;61391;50.922;6.928;2023-01-15T03:00:01;7.70;99.90
34698;DHT22;61391;50.922;6.928;2023-01-15T03:05:57;7.70;99.90
34698;DHT22;61391;50.922;6.928;2023-01-15T03:08:25;7.70;99.90
34698;DHT22;61391;50.922;6.928;2023-01-15T03:11:13;7.70;99.90
34698;DHT22;61391;50.922;6.928;2023-01-15T03:17:16;7.90;99.90
34698;DHT22;61391;50.922;6.928;2023-01-15T03:19:53;7.90;99.90
34698;DHT22;61391;50.922;6.928;2023-01-15T03:22:32;8.00;99.90
34698;DHT22;61391;50.922;6.928;2023-01-15T03:28:24;7.90;99.90
34698;DHT22;61391;50.922;6.928;2023-01-15T03:30:50;7.90;99.90
34698;DHT22;61391;50.922;6.928;2023-01-15T03:33:17;8.00;99.90
34698;DHT22;61391;50.922;6.928;2023-01-15T03:35:47;8.00;99.90
34698;DHT22;61391;50.922;6.928;2023-01-15T03:38:17;8.00;99.90
34698;DHT22;61391;50.922;6.928;2023-01-15T03:52:02;8.10;99.90
34698;DHT22;61391;50.922;6.928;2023-01-15T03:54:56;8.20;99.90
34698;DHT22;61391;50.922;6.928;2023-01-15T04:00:14;8.10;99.90
34698;DHT22;61391;50.922;6.928;2023-01-15T04:02:44;8.20;99.90
34698;DHT22;61391;50.922;6.928;2023-01-15T04:05:13;8.30;99.90
34698;DHT22;61391;50.922;6.928;2023-01-15T04:07:40;8.30;99.90
34698;DHT22;61391;50.922;6.928;2023-01-15T04:10:08;8.40;99.90
34698;DHT22;61391;50.922;6.928;2023-01-15T04:12:34;8.20;99.90
34698;DHT22;61391;50.922;6.928;2023-01-15T04:14:59;8.30;99.90
34698;DHT22;61391;50.922;6.928;2023-01-15T04:17:25;8.30;99.90
34698;DHT22;61391;50.922;6.928;2023-01-15T04:19:50;8.20;99.90
34698;DHT22;61391;50.922;6.928;2023-01-15T04:25:37;8.20;99.90
34698;DHT22;61391;50.922;6.928;2023-01-15T04:28:05;8.30;99.90
34698;DHT22;61391;50.922;6.928;2023-01-15T04:30:30;8.20;99.90
34698;DHT22;61391;50.922;6.928;2023-01-15T04:32:56;8.30;99.90
34698;DHT22;61391;50.922;6.928;2023-01-15T04:41:51;8.10;99.90
34698;DHT22;61391;50.922;6.928;2023-01-15T04:44:35;8.20;99.90
34698;DHT22;61391;50.922;6.928;2023-01-15T04:47:01;8.20;99.90
34698;DHT22;61391;50.922;6.928;2023-01-15T04:49:27;8.10;99.90
34698;DHT22;61391;50.922;6.928;2023-01-15T04:51:53;8.20;99.90
34698;DHT22;61391;50.922;6.928;2023-01-15T04:54:18;8.20;99.90
34698;DHT22;61391;50.922;6.928;2023-01-15T04:56:50;8.10;99.90
34698;DHT22;61391;50.922;6.928;2023-01-15T04:59:22;8.00;99.90
34698;DHT22;61391;50.922;6.928;2023-01-15T05:01:48;8.00;99.90
34698;DHT22;61391;50.922;6.928;2023-01-15T05:04:14;8.00;99.90
34698;DHT22;61391;50.922;6.928;2023-01-15T05:06:40;8.10;99.90
34698;DHT22;61391;50.922;6.928;2023-01-15T05:09:05;8.00;99.90
34698;DHT22;61391;50.922;6.928;2023-01-15T05:11:35;8.10;99.90
34698;DHT22;61391;50.922;6.928;2023-01-15T05:14:01;8.00;99.90
34698;DHT22;61391;50.922;6.928;2023-01-15T05:16:27;8.00;99.90
34698;DHT22;61391;50.922;6.928;2023-01-15T05:18:56;8.10;99.90
34698;DHT22;61391;50.922;6.928;2023-01-15T05:21:28;8.20;99.90
34698;DHT22;61391;50.922;6.928;2023-01-15T05:23:56;8.20;99.90
34698;DHT22;61391;50.922;6.928;2023-01-15T05:26:23;8.10;99.90
34698;DHT22;61391;50.922;6.928;2023-01-15T05:28:52;8.20;99.90
34698;DHT22;61391;50.922;6.928;2023-01-15T05:31:18;8.20;99.90
34698;DHT22;61391;50.922;6.928;2023-01-15T05:33:47;8.20;99.90
34698;DHT22;61391;50.922;6.928;2023-01-15T05:36:17;8.30;99.90
34698;DHT22;61391;50.922;6.928;2023-01-15T05:38:43;8.30;99.90
34698;DHT22;61391;50.922;6.928;2023-01-15T05:41:14;8.20;99.90
34698;DHT22;61391;50.922;6.928;2023-01-15T05:47:20;8.20;99.90
34698;DHT22;61391;50.922;6.928;2023-01-15T05:49:46;8.20;99.90
34698;DHT22;61391;50.922;6.928;2023-01-15T05:52:14;8.20;99.90
34698;DHT22;61391;50.922;6.928;2023-01-15T05:54:40;8.20;99.90
34698;DHT22;61391;50.922;6.928;2023-01-15T06:00:27;8.00;99.90
34698;DHT22;61391;50.922;6.928;2023-01-15T06:06:17;8.00;99.90
34698;DHT22;61391;50.922;6.928;2023-01-15T06:08:43;7.90;99.90
34698;DHT22;61391;50.922;6.928;2023-01-15T06:11:09;7.90;99.90
34698;DHT22;61391;50.922;6.928;2023-01-15T06:13:36;7.80;99.90
34698;DHT22;61391;50.922;6.928;2023-01-15T06:19:23;7.90;99.90
34698;DHT22;61391;50.922;6.928;2023-01-15T06:21:48;7.90;99.90
34698;DHT22;61391;50.922;6.928;2023-01-15T06:27:36;7.80;99.90
34698;DHT22;61391;50.922;6.928;2023-01-15T06:30:01;7.80;99.90
34698;DHT22;61391;50.922;6.928;2023-01-15T06:32:27;7.80;99.90
34698;DHT22;61391;50.922;6.928;2023-01-15T06:34:52;7.80;99.90
34698;DHT22;61391;50.922;6.928;2023-01-15T06:37:18;7.90;99.90
34698;DHT22;61391;50.922;6.928;2023-01-15T06:39:43;7.80;99.90
34698;DHT22;61391;50.922;6.928;2023-01-15T06:42:09;7.80;99.90
34698;DHT22;61391;50.922;6.928;2023-01-15T06:44:53;7.80;99.90
34698;DHT22;61391;50.922;6.928;2023-01-15T06:47:37;7.90;99.90
34698;DHT22;61391;50.922;6.928;2023-01-15T06:50:03;7.80;99.90
34698;DHT22;61391;50.922;6.928;2023-01-15T06:52:29;7.90;99.90
34698;DHT22;61391;50.922;6.928;2023-01-15T06:54:54;7.80;99.90
34698;DHT22;61391;50.922;6.928;2023-01-15T07:00:42;7.60;99.90
34698;DHT22;61391;50.922;6.928;2023-01-15T07:03:10;7.50;99.90
34698;DHT22;61391;50.922;6.928;2023-01-15T07:09:00;7.40;99.90
34698;DHT22;61391;50.922;6.928;2023-01-15T07:11:26;7.30;99.90
34698;DHT22;61391;50.922;6.928;2023-01-15T07:13:51;7.20;99.90
34698;DHT22;61391;50.922;6.928;2023-01-15T07:16:31;6.90;99.90
34698;DHT22;61391;50.922;6.928;2023-01-15T07:18:56;6.80;99.90
34698;DHT22;61391;50.922;6.928;2023-01-15T07:21:22;6.80;99.90
34698;DHT22;61391;50.922;6.928;2023-01-15T07:23:48;6.80;99.90
34698;DHT22;61391;50.922;6.928;2023-01-15T07:26:14;6.90;99.90
34698;DHT22;61391;50.922;6.928;2023-01-15T07:28:40;7.00;99.90
34698;DHT22;61391;50.922;6.928;2023-01-15T07:31:05;7.10;99.90
34698;DHT22;61391;50.922;6.928;2023-01-15T07:33:31;7.10;99.90
34698;DHT22;61391;50.922;6.928;2023-01-15T07:35:56;7.10;99.90
34698;DHT22;61391;50.922;6.928;2023-01-15T07:38:22;7.10;99.90
34698;DHT22;61391;50.922;6.928;2023-01-15T07:40:48;7.20;99.90
34698;DHT22;61391;50.922;6.928;2023-01-15T07:43:34;7.20;99.90
34698;DHT22;61391;50.922;6.928;2023-01-15T07:49:42;7.50;99.90
34698;DHT22;61391;50.922;6.928;2023-01-15T07:52:18;7.40;99.90
34698;DHT22;61391;50.922;6.928;2023-01-15T07:54:44;7.40;99.90
34698;DHT22;61391;50.922;6.928;2023-01-15T08:00:32;7.40;99.90
34698;DHT22;61391;50.922;6.928;2023-01-15T08:02:58;7.40;99.90
34698;DHT22;61391;50.922;6.928;2023-01-15T08:05:23;7.40;99.90
34698;DHT22;61391;50.922;6.928;2023-01-15T08:07:49;7.40;99.90
34698;DHT22;61391;50.922;6.928;2023-01-15T08:10:15;7.30;99.90
34698;DHT22;61391;50.922;6.928;2023-01-15T08:12:40;7.20;99.90
34698;DHT22;61391;50.922;6.928;2023-01-15T08:15:25;7.10;99.90
34698;DHT22;61391;50.922;6.928;2023-01-15T08:17:51;6.90;99.90
34698;DHT22;61391;50.922;6.928;2023-01-15T08:20:20;6.80;99.90
34698;DHT22;61391;50.922;6.928;2023-01-15T08:22:46;6.70;99.90
34698;DHT22;61391;50.922;6.928;2023-01-15T08:25:17;6.70;99.90
34698;DHT22;61391;50.922;6.928;2023-01-15T08:27:44;6.70;99.90
34698;DHT22;61391;50.922;6.928;2023-01-15T08:30:15;6.80;99.90
34698;DHT22;61391;50.922;6.928;2023-01-15T08:32:41;6.70;99.90
34698;DHT22;61391;50.922;6.928;2023-01-15T08:35:07;6.70;99.90
34698;DHT22;61391;50.922;6.928;2023-01-15T08:37:33;6.60;99.90
34698;DHT22;61391;50.922;6.928;2023-01-15T08:39:58;6.50;99.90
34698;DHT22;61391;50.922;6.928;2023-01-15T08:42:24;6.40;99.90
34698;DHT22;61391;50.922;6.928;2023-01-15T08:44:50;6.40;99.90
34698;DHT22;61391;50.922;6.928;2023-01-15T08:47:16;6.40;99.90
34698;DHT22;61391;50.922;6.928;2023-01-15T08:53:04;6.50;99.90
34698;DHT22;61391;50.922;6.928;2023-01-15T08:55:29;6.40;99.90
34698;DHT22;61391;50.922;6.928;2023-01-15T08:57:55;6.40;99.90
34698;DHT22;61391;50.922;6.928;2023-01-15T09:00:20;6.50;99.90
34698;DHT22;61391;50.922;6.928;2023-01-15T09:02:46;6.50;99.90
34698;DHT22;61391;50.922;6.928;2023-01-15T09:05:11;6.60;99.90
34698;DHT22;61391;50.922;6.928;2023-01-15T09:07:37;6.70;99.90
34698;DHT22;61391;50.922;6.928;2023-01-15T09:10:03;6.70;99.90
34698;DHT22;61391;50.922;6.928;2023-01-15T09:12:28;6.70;99.90
34698;DHT22;61391;50.922;6.928;2023-01-15T09:14:55;6.60;99.90
34698;DHT22;61391;50.922;6.928;2023-01-15T09:17:20;6.40;99.90
34698;DHT22;61391;50.922;6.928;2023-01-15T09:19:46;6.40;99.90
34698;DHT22;61391;50.922;6.928;2023-01-15T09:22:12;6.40;99.90
34698;DHT22;61391;50.922;6.928;2023-01-15T09:27:59;6.80;99.90
34698;DHT22;61391;50.922;6.928;2023-01-15T09:30:25;7.00;99.90
34698;DHT22;61391;50.922;6.928;2023-01-15T09:32:50;7.00;99.90
34698;DHT22;61391;50.922;6.928;2023-01-15T09:35:16;7.10;99.90
34698;DHT22;61391;50.922;6.928;2023-01-15T09:37:41;7.20;99.90
34698;DHT22;61391;50.922;6.928;2023-01-15T09:40:24;7.00;99.90
34698;DHT22;61391;50.922;6.928;2023-01-15T09:46:28;7.10;99.90
34698;DHT22;61391;50.922;6.928;2023-01-15T09:52:11;8.00;99.90
34698;DHT22;61391;50.922;6.928;2023-01-15T10:00:38;10.90;99.90
34698;DHT22;61391;50.922;6.928;2023-01-15T10:03:06;10.70;99.90
34698;DHT22;61391;50.922;6.928;2023-01-15T10:08:30;10.90;99.90
34698;DHT22;61391;50.922;6.928;2023-01-15T10:14:42;12.00;99.90
34698;DHT22;61391;50.922;6.928;2023-01-15T10:17:24;12.70;99.90
34698;DHT22;61391;50.922;6.928;2023-01-15T10:19:52;13.00;99.90
34698;DHT22;61391;50.922;6.928;2023-01-15T10:22:39;13.00;99.90
34698;DHT22;61391;50.922;6.928;2023-01-15T10:25:14;12.80;99.90
34698;DHT22;61391;50.922;6.928;2023-01-15T10:27:46;12.80;99.90
34698;DHT22;61391;50.922;6.928;2023-01-15T10:30:22;12.80;99.90
34698;DHT22;61391;50.922;6.928;2023-01-15T10:32:54;13.10;99.90
34698;DHT22;61391;50.922;6.928;2023-01-15T10:35:39;13.40;99.90
34698;DHT22;61391;50.922;6.928;2023-01-15T10:39:08;13.10;99.90
34698;DHT22;61391;50.922;6.928;2023-01-15T10:44:18;13.00;99.90
34698;DHT22;61391;50.922;6.928;2023-01-15T10:46:52;13.60;99.90
34698;DHT22;61391;50.922;6.928;2023-01-15T10:52:44;13.50;99.90
34698;DHT22;61391;50.922;6.928;2023-01-15T10:55:30;14.20;99.90
34698;DHT22;61391;50.922;6.928;2023-01-15T11:00:49;13.30;99.90
34698;DHT22;61391;50.922;6.928;2023-01-15T11:03:21;13.00;99.90
34698;DHT22;61391;50.922;6.928;2023-01-15T11:09:21;12.70;99.90
34698;DHT22;61391;50.922;6.928;2023-01-15T11:11:50;12.00;99.90
34698;DHT22;61391;50.922;6.928;2023-01-15T11:14:42;11.60;99.90
34698;DHT22;61391;50.922;6.928;2023-01-15T11:17:42;11.30;99.90
34698;DHT22;61391;50.922;6.928;2023-01-15T11:20:34;11.00;99.90
34698;DHT22;61391;50.922;6.928;2023-01-15T11:25:33;10.20;99.90
34698;DHT22;61391;50.922;6.928;2023-01-15T11:28:02;9.80;99.90
34698;DHT22;61391;50.922;6.928;2023-01-15T11:30:35;9.70;99.90
34698;DHT22;61391;50.922;6.928;2023-01-15T11:33:15;9.80;99.90
34698;DHT22;61391;50.922;6.928;2023-01-15T11:35:52;9.50;99.90
34698;DHT22;61391;50.922;6.928;2023-01-15T11:38:23;9.50;99.90
34698;DHT22;61391;50.922;6.928;2023-01-15T11:40:59;9.60;99.90
34698;DHT22;61391;50.922;6.928;2023-01-15T11:43:27;9.40;99.90
34698;DHT22;61391;50.922;6.928;2023-01-15T11:46:38;9.40;99.90
34698;DHT22;61391;50.922;6.928;2023-01-15T11:49:22;9.60;99.90
34698;DHT22;61391;50.922;6.928;2023-01-15T11:55:28;9.60;99.90
34698;DHT22;61391;50.922;6.928;2023-01-15T11:57:55;9.40;99.90
34698;DHT22;61391;50.922;6.928;2023-01-15T12:00:28;9.40;99.90
34698;DHT22;61391;50.922;6.928;2023-01-15T12:03:00;9.20;99.90
34698;DHT22;61391;50.922;6.928;2023-01-15T12:05:30;9.20;99.90
34698;DHT22;61391;50.922;6.928;2023-01-15T12:07:57;9.20;99.90
34698;DHT22;61391;50.922;6.928;2023-01-15T12:10:33;9.20;99.90
34698;DHT22;61391;50.922;6.928;2023-01-15T12:16:53;9.30;99.90
34698;DHT22;61391;50.922;6.928;2023-01-15T12:19:45;9.30;99.90
34698;DHT22;61391;50.922;6.928;2023-01-15T12:28:13;9.00;99.90
34698;DHT22;61391;50.922;6.928;2023-01-15T12:30:57;9.10;99.90
34698;DHT22;61391;50.922;6.928;2023-01-15T12:39:23;9.00;99.90
34698;DHT22;61391;50.922;6.928;2023-01-15T12:41:56;9.00;99.90
34698;DHT22;61391;50.922;6.928;2023-01-15T12:50:50;9.20;99.90
34698;DHT22;61391;50.922;6.928;2023-01-15T12:53:29;9.10;99.90
34698;DHT22;61391;50.922;6.928;2023-01-15T12:59:29;9.10;99.90
34698;DHT22;61391;50.922;6.928;2023-01-15T13:05:02;8.90;99.90
34698;DHT22;61391;50.922;6.928;2023-01-15T13:10:53;9.10;99.90
34698;DHT22;61391;50.922;6.928;2023-01-15T13:13:25;9.20;99.90
34698;DHT22;61391;50.922;6.928;2023-01-15T13:16:13;9.30;99.90
34698;DHT22;61391;50.922;6.928;2023-01-15T13:21:28;9.20;99.90
34698;DHT22;61391;50.922;6.928;2023-01-15T13:33:04;9.20;99.90
34698;DHT22;61391;50.922;6.928;2023-01-15T13:35:41;9.20;99.90
34698;DHT22;61391;50.922;6.928;2023-01-15T13:41:32;9.30;99.90
34698;DHT22;61391;50.922;6.928;2023-01-15T13:47:44;9.20;99.90
34698;DHT22;61391;50.922;6.928;2023-01-15T13:53:28;9.20;99.90
34698;DHT22;61391;50.922;6.928;2023-01-15T13:56:02;9.20;99.90
34698;DHT22;61391;50.922;6.928;2023-01-15T13:58:37;9.30;99.90
34698;DHT22;61391;50.922;6.928;2023-01-15T14:01:06;9.40;99.90
34698;DHT22;61391;50.922;6.928;2023-01-15T14:03:36;9.30;99.90
34698;DHT22;61391;50.922;6.928;2023-01-15T14:06:09;9.40;99.90
34698;DHT22;61391;50.922;6.928;2023-01-15T14:12:33;9.30;99.90
34698;DHT22;61391;50.922;6.928;2023-01-15T14:18:33;9.10;99.90
34698;DHT22;61391;50.922;6.928;2023-01-15T14:56:34;8.80;99.90
34698;DHT22;61391;50.922;6.928;2023-01-15T15:09:02;8.60;99.90
34698;DHT22;61391;50.922;6.928;2023-01-15T15:11:40;8.60;99.90
34698;DHT22;61391;50.922;6.928;2023-01-15T15:29:49;8.50;99.90
34698;DHT22;61391;50.922;6.928;2023-01-15T15:32:20;8.50;99.90
34698;DHT22;61391;50.922;6.928;2023-01-15T15:34:48;8.50;99.90
34698;DHT22;61391;50.922;6.928;2023-01-15T15:37:19;8.40;99.90
34698;DHT22;61391;50.922;6.928;2023-01-15T15:45:51;8.50;99.90
34698;DHT22;61391;50.922;6.928;2023-01-15T15:51:57;8.40;99.90
34698;DHT22;61391;50.922;6.928;2023-01-15T15:54:25;8.50;99.90
34698;DHT22;61391;50.922;6.928;2023-01-15T15:59:42;8.50;99.90
34698;DHT22;61391;50.922;6.928;2023-01-15T16:04:51;8.40;99.90
34698;DHT22;61391;50.922;6.928;2023-01-15T16:07:29;8.40;99.90
34698;DHT22;61391;50.922;6.928;2023-01-15T16:10:02;8.30;99.90
34698;DHT22;61391;50.922;6.928;2023-01-15T16:12:30;8.30;99.90
34698;DHT22;61391;50.922;6.928;2023-01-15T16:14:57;8.30;99.90
34698;DHT22;61391;50.922;6.928;2023-01-15T16:17:24;8.40;99.90
34698;DHT22;61391;50.922;6.928;2023-01-15T16:19:54;8.40;99.90
34698;DHT22;61391;50.922;6.928;2023-01-15T16:22:22;8.40;99.90
34698;DHT22;61391;50.922;6.928;2023-01-15T16:24:55;8.30;99.90
34698;DHT22;61391;50.922;6.928;2023-01-15T16:27:22;8.40;99.90
34698;DHT22;61391;50.922;6.928;2023-01-15T16:29:52;8.40;99.90
34698;DHT22;61391;50.922;6.928;2023-01-15T16:32:23;8.50;99.90
34698;DHT22;61391;50.922;6.928;2023-01-15T16:34:59;8.50;99.90
34698;DHT22;61391;50.922;6.928;2023-01-15T16:37:29;8.40;99.90
34698;DHT22;61391;50.922;6.928;2023-01-15T16:39:55;8.50;99.90
34698;DHT22;61391;50.922;6.928;2023-01-15T16:42:35;8.40;99.90
34698;DHT22;61391;50.922;6.928;2023-01-15T16:57:03;8.20;99.90
34698;DHT22;61391;50.922;6.928;2023-01-15T17:02:15;8.20;99.90
34698;DHT22;61391;50.922;6.928;2023-01-15T17:08:15;8.30;99.90
34698;DHT22;61391;50.922;6.928;2023-01-15T17:10:55;8.20;99.90
34698;DHT22;61391;50.922;6.928;2023-01-15T17:13:34;8.20;99.90
34698;DHT22;61391;50.922;6.928;2023-01-15T17:19:22;8.30;99.90
34698;DHT22;61391;50.922;6.928;2023-01-15T17:21:49;8.30;99.90
34698;DHT22;61391;50.922;6.928;2023-01-15T17:27:38;8.30;99.90
34698;DHT22;61391;50.922;6.928;2023-01-15T17:30:04;8.30;99.90
34698;DHT22;61391;50.922;6.928;2023-01-15T17:32:32;8.30;99.90
34698;DHT22;61391;50.922;6.928;2023-01-15T17:38:22;8.30;99.90
34698;DHT22;61391;50.922;6.928;2023-01-15T17:44:11;8.20;99.90
34698;DHT22;61391;50.922;6.928;2023-01-15T17:46:37;8.30;99.90
34698;DHT22;61391;50.922;6.928;2023-01-15T17:49:31;8.20;99.90
34698;DHT22;61391;50.922;6.928;2023-01-15T17:55:22;8.20;99.90
34698;DHT22;61391;50.922;6.928;2023-01-15T17:58:10;8.30;99.90
34698;DHT22;61391;50.922;6.928;2023-01-15T18:04:25;8.40;99.90
34698;DHT22;61391;50.922;6.928;2023-01-15T18:10:32;8.30;99.90
34698;DHT22;61391;50.922;6.928;2023-01-15T18:16:20;8.30;99.90
34698;DHT22;61391;50.922;6.928;2023-01-15T18:22:08;8.10;99.90
34698;DHT22;61391;50.922;6.928;2023-01-15T18:24:37;8.30;99.90
34698;DHT22;61391;50.922;6.928;2023-01-15T18:30:25;8.30;99.90
34698;DHT22;61391;50.922;6.928;2023-01-15T18:32:51;8.20;99.90
34698;DHT22;61391;50.922;6.928;2023-01-15T18:35:16;8.30;99.90
34698;DHT22;61391;50.922;6.928;2023-01-15T18:37:44;8.40;99.90
34698;DHT22;61391;50.922;6.928;2023-01-15T18:40:10;8.50;99.90
34698;DHT22;61391;50.922;6.928;2023-01-15T18:45:59;8.40;99.90
34698;DHT22;61391;50.922;6.928;2023-01-15T18:52:21;8.20;99.90
34698;DHT22;61391;50.922;6.928;2023-01-15T18:58:27;8.00;99.90
34698;DHT22;61391;50.922;6.928;2023-01-15T19:00:54;8.10;99.90
34698;DHT22;61391;50.922;6.928;2023-01-15T19:03:22;8.10;99.90
34698;DHT22;61391;50.922;6.928;2023-01-15T19:09:12;7.90;99.90
34698;DHT22;61391;50.922;6.928;2023-01-15T19:11:41;7.90;99.90
34698;DHT22;61391;50.922;6.928;2023-01-15T19:17:30;7.70;99.90
34698;DHT22;61391;50.922;6.928;2023-01-15T19:23:39;7.50;99.90
34698;DHT22;61391;50.922;6.928;2023-01-15T19:26:05;7.40;99.90
34698;DHT22;61391;50.922;6.928;2023-01-15T19:28:30;7.30;99.90
34698;DHT22;61391;50.922;6.928;2023-01-15T19:30:57;7.30;99.90
34698;DHT22;61391;50.922;6.928;2023-01-15T19:37:03;7.40;99.90
34698;DHT22;61391;50.922;6.928;2023-01-15T19:42:53;7.30;99.90
34698;DHT22;61391;50.922;6.928;2023-01-15T19:45:40;7.30;99.90
34698;DHT22;61391;50.922;6.928;2023-01-15T19:48:26;7.30;99.90
34698;DHT22;61391;50.922;6.928;2023-01-15T19:51:11;7.30;99.90
34698;DHT22;61391;50.922;6.928;2023-01-15T19:57:01;7.30;99.90
34698;DHT22;61391;50.922;6.928;2023-01-15T20:02:48;7.30;99.90
34698;DHT22;61391;50.922;6.928;2023-01-15T20:08:36;7.40;99.90
34698;DHT22;61391;50.922;6.928;2023-01-15T20:11:06;7.30;99.90
34698;DHT22;61391;50.922;6.928;2023-01-15T20:13:32;7.20;99.90
34698;DHT22;61391;50.922;6.928;2023-01-15T20:16:15;7.00;99.90
34698;DHT22;61391;50.922;6.928;2023-01-15T20:22:07;7.20;99.90
34698;DHT22;61391;50.922;6.928;2023-01-15T20:24:37;7.10;99.90
34698;DHT22;61391;50.922;6.928;2023-01-15T20:30:30;7.00;99.90
34698;DHT22;61391;50.922;6.928;2023-01-15T20:36:19;6.90;99.90
34698;DHT22;61391;50.922;6.928;2023-01-15T20:38:45;7.10;99.90
34698;DHT22;61391;50.922;6.928;2023-01-15T20:44:33;7.00;99.90
34698;DHT22;61391;50.922;6.928;2023-01-15T20:50:45;7.00;99.90
34698;DHT22;61391;50.922;6.928;2023-01-15T20:53:39;7.00;99.90
34698;DHT22;61391;50.922;6.928;2023-01-15T20:56:14;7.10;99.90
34698;DHT22;61391;50.922;6.928;2023-01-15T21:02:21;7.10;99.90
34698;DHT22;61391;50.922;6.928;2023-01-15T21:04:48;7.40;99.90
34698;DHT22;61391;50.922;6.928;2023-01-15T21:07:15;7.20;99.90
34698;DHT22;61391;50.922;6.928;2023-01-15T21:09:41;7.20;99.90
34698;DHT22;61391;50.922;6.928;2023-01-15T21:12:06;7.40;99.90
34698;DHT22;61391;50.922;6.928;2023-01-15T21:14:32;7.30;99.90
34698;DHT22;61391;50.922;6.928;2023-01-15T21:16:58;7.30;99.90
34698;DHT22;61391;50.922;6.928;2023-01-15T21:22:45;7.30;99.90
34698;DHT22;61391;50.922;6.928;2023-01-15T21:25:12;7.20;99.90
34698;DHT22;61391;50.922;6.928;2023-01-15T21:27:39;7.00;99.90
34698;DHT22;61391;50.922;6.928;2023-01-15T21:30:08;6.90;99.90
34698;DHT22;61391;50.922;6.928;2023-01-15T21:32:36;7.00;99.90
34698;DHT22;61391;50.922;6.928;2023-01-15T21:38:25;7.00;99.90
34698;DHT22;61391;50.922;6.928;2023-01-15T21:40:50;7.00;99.90
34698;DHT22;61391;50.922;6.928;2023-01-15T21:43:16;6.90;99.90
34698;DHT22;61391;50.922;6.928;2023-01-15T21:46:04;7.00;99.90
34698;DHT22;61391;50.922;6.928;2023-01-15T21:48:30;6.90;99.90
34698;DHT22;61391;50.922;6.928;2023-01-15T21:54:19;7.00;99.90
34698;DHT22;61391;50.922;6.928;2023-01-15T21:56:45;7.00;99.90
34698;DHT22;61391;50.922;6.928;2023-01-15T22:02:33;7.10;99.90
34698;DHT22;61391;50.922;6.928;2023-01-15T22:05:01;7.00;99.90
34698;DHT22;61391;50.922;6.928;2023-01-15T22:07:27;7.00;99.90
34698;DHT22;61391;50.922;6.928;2023-01-15T22:13:16;7.10;99.90
34698;DHT22;61391;50.922;6.928;2023-01-15T22:19:04;7.10;99.90
34698;DHT22;61391;50.922;6.928;2023-01-15T22:24:51;6.90;99.90
34698;DHT22;61391;50.922;6.928;2023-01-15T22:27:17;7.00;99.90
34698;DHT22;61391;50.922;6.928;2023-01-15T22:33:06;7.10;99.90
34698;DHT22;61391;50.922;6.928;2023-01-15T22:35:32;7.00;99.90
34698;DHT22;61391;50.922;6.928;2023-01-15T22:38:00;6.90;99.90
34698;DHT22;61391;50.922;6.928;2023-01-15T22:40:26;6.90;99.90
34698;DHT22;61391;50.922;6.928;2023-01-15T22:46:13;7.10;99.90
34698;DHT22;61391;50.922;6.928;2023-01-15T22:48:39;7.00;99.90
34698;DHT22;61391;50.922;6.928;2023-01-15T22:54:26;7.10;99.90
34698;DHT22;61391;50.922;6.928;2023-01-15T22:56:53;7.10;99.90
34698;DHT22;61391;50.922;6.928;2023-01-15T23:02:41;7.10;99.90
34698;DHT22;61391;50.922;6.928;2023-01-15T23:08:46;7.10;99.90
34698;DHT22;61391;50.922;6.928;2023-01-15T23:11:15;7.10;99.90
34698;DHT22;61391;50.922;6.928;2023-01-15T23:13:41;7.20;99.90
34698;DHT22;61391;50.922;6.928;2023-01-15T23:16:08;7.20;99.90
34698;DHT22;61391;50.922;6.928;2023-01-15T23:18:36;7.20;99.90
34698;DHT22;61391;50.922;6.928;2023-01-15T23:21:07;7.10;99.90
34698;DHT22;61391;50.922;6.928;2023-01-15T23:23:34;7.00;99.90